Terminal Aerodrome Forecast
Issued by NWS

Home | Current Version | Previous Version | Graphics & Text | Print | Product List | Glossary On
Versions: 1 2 3 4 5 6 7 8 9 10 11 12 13 14 15 16 17 18 19 20
000
FTUS43 KGRB 211138
TAFAUW
TAF
KAUW 211138Z 2112/2212 28010KT P6SM SCT006 BKN018
      TEMPO 2112/2116 BKN006
     FM211600 28005KT P6SM SCT015 SCT200
     FM211800 24005KT P6SM SKC
     FM220200 21006KT P6SM SCT120 WS020/24035KT=

USA.gov is the U.S. government's official web portal to all federal, state and local government web resources and services.